Time;durP1;ratioP1;P1;durP2;ratioP2;P2;SDS_P1;SDS_P2;PMS_P1;PMS_P2;Temp;Humidity;BMP_temperature;BMP_pressure;BME280_temperature;BME280_humidity;BME280_pressure;Samples;Min_cycle;Max_cycle;Signal;HPM_P1;HPM_P2
2024/03/26 00:02:03;;;;;;;0.10;0.10;;;;;;;-139.19;100.00;56970.53;5075261;28;20036;-66
2024/03/26 00:05:27;;;;;;;1.02;0.38;;;;;;;-139.19;100.00;56970.53;5075167;28;20117;-66
2024/03/26 00:08:51;;;;;;;0.00;0.00;;;;;;;-139.19;100.00;56970.53;5074996;28;20078;-66
2024/03/26 00:12:15;;;;;;;0.10;0.10;;;;;;;-139.19;100.00;56970.53;5075224;28;20503;-66
2024/03/26 00:15:39;;;;;;;0.00;0.00;;;;;;;-139.19;100.00;56970.53;5069573;28;20025;-66
2024/03/26 00:19:03;;;;;;;0.10;0.10;;;;;;;-139.19;100.00;56970.53;5075161;28;20468;-66
2024/03/26 00:22:27;;;;;;;1.08;0.40;;;;;;;-139.19;100.00;56970.53;5075566;28;20037;-66
2024/03/26 00:25:50;;;;;;;0.38;0.30;;;;;;;-139.19;100.00;56970.53;5067191;28;20376;-72
2024/03/26 00:29:14;;;;;;;0.10;0.10;;;;;;;-139.19;100.00;56970.53;5080677;28;20043;-72
2024/03/26 00:32:38;;;;;;;0.00;0.00;;;;;;;-139.19;100.00;56970.53;5094985;28;20032;-72
2024/03/26 00:36:03;;;;;;;0.00;0.00;;;;;;;-139.19;100.00;56970.53;5094754;28;20032;-72
2024/03/26 00:39:27;;;;;;;0.00;0.00;;;;;;;-139.19;100.00;56970.53;5094715;28;20039;-72
2024/03/26 00:42:50;;;;;;;0.00;0.00;;;;;;;-139.19;100.00;56970.53;5094732;28;20388;-72
2024/03/26 00:46:14;;;;;;;0.03;0.03;;;;;;;-139.19;100.00;56970.53;5094675;28;20024;-72
2024/03/26 00:49:38;;;;;;;0.05;0.05;;;;;;;-139.19;100.00;56970.53;5093356;28;20055;-72
2024/03/26 00:53:02;;;;;;;0.10;0.10;;;;;;;-139.19;100.00;56970.53;5093337;28;20038;-72
2024/03/26 00:56:26;;;;;;;0.10;0.10;;;;;;;-139.19;100.00;56970.53;5093786;28;20070;-72
2024/03/26 00:59:50;;;;;;;0.25;0.25;;;;;;;-139.19;100.00;56970.53;5093511;28;20421;-72
2024/03/26 01:03:13;;;;;;;0.30;0.30;;;;;;;-139.19;100.00;56970.53;5093795;28;20476;-72
2024/03/26 01:06:37;;;;;;;0.03;0.03;;;;;;;-139.19;100.00;56970.53;5088013;28;20074;-72
2024/03/26 01:10:01;;;;;;;0.10;0.10;;;;;;;-139.19;100.00;56970.53;5073889;28;20029;-72
2024/03/26 01:13:25;;;;;;;0.20;0.20;;;;;;;-139.19;100.00;56970.53;5073989;28;20127;-72
2024/03/26 01:16:49;;;;;;;0.00;0.00;;;;;;;-139.19;100.00;56970.53;5073680;28;20028;-72
2024/03/26 01:20:13;;;;;;;0.05;0.05;;;;;;;-139.19;100.00;56970.53;5080563;28;20036;-72
2024/03/26 01:23:37;;;;;;;0.43;0.40;;;;;;;-139.19;100.00;56970.53;5093400;28;20024;-72
2024/03/26 01:27:01;;;;;;;0.08;0.08;;;;;;;-139.19;100.00;56970.53;5093052;28;20025;-72
2024/03/26 01:30:24;;;;;;;0.00;0.00;;;;;;;-139.19;100.00;56970.53;5093273;28;20373;-72
2024/03/26 01:33:49;;;;;;;0.10;0.10;;;;;;;-139.19;100.00;56970.53;5085835;28;20032;-72
2024/03/26 01:37:12;;;;;;;0.10;0.10;;;;;;;-139.19;100.00;56970.53;5074138;28;20403;-72
2024/03/26 01:40:36;;;;;;;0.08;0.08;;;;;;;-139.19;100.00;56970.53;5093138;28;20043;-72
2024/03/26 01:44:00;;;;;;;0.20;0.20;;;;;;;-139.19;100.00;56970.53;5093050;28;20060;-72
2024/03/26 01:47:26;;;;;;;0.20;0.20;;;;;;;-139.19;100.00;56970.53;5092991;28;20392;-72
2024/03/26 01:50:52;;;;;;;0.25;0.25;;;;;;;-139.19;100.00;56970.53;5092848;28;20032;-72
2024/03/26 01:54:16;;;;;;;0.25;0.10;;;;;;;-139.19;100.00;56970.53;5092894;28;20028;-72
2024/03/26 01:57:41;;;;;;;0.10;0.10;;;;;;;-139.19;100.00;56970.53;5059138;28;20036;-72
2024/03/26 02:01:06;;;;;;;0.38;0.38;;;;;;;-139.19;100.00;56970.53;5082497;28;20082;-72
2024/03/26 02:04:30;;;;;;;0.10;0.10;;;;;;;-139.19;100.00;56970.53;5073196;28;20020;-71
2024/03/26 02:07:55;;;;;;;0.00;0.00;;;;;;;-139.19;100.00;56970.53;5072602;28;20111;-72
2024/03/26 02:11:19;;;;;;;0.05;0.05;;;;;;;-139.19;100.00;56970.53;5073253;28;20498;-72
2024/03/26 02:14:43;;;;;;;0.10;0.10;;;;;;;-139.19;100.00;56970.53;5081455;28;20464;-72
2024/03/26 02:18:07;;;;;;;0.10;0.10;;;;;;;-139.19;100.00;56970.53;5073028;28;20066;-72
2024/03/26 02:21:31;;;;;;;0.52;0.52;;;;;;;-139.19;100.00;56970.53;5073072;28;20025;-72
2024/03/26 02:24:55;;;;;;;0.08;0.08;;;;;;;-139.19;100.00;56970.53;5073164;28;20602;-72
2024/03/26 02:28:19;;;;;;;0.10;0.10;;;;;;;-139.19;100.00;56970.53;5084567;28;20028;-73
2024/03/26 02:31:43;;;;;;;0.13;0.13;;;;;;;-139.19;100.00;56970.53;5092566;28;20059;-72
2024/03/26 02:35:07;;;;;;;0.15;0.15;;;;;;;-139.19;100.00;56970.53;5092475;28;20070;-73
2024/03/26 02:38:31;;;;;;;0.05;0.05;;;;;;;-139.19;100.00;56970.53;5090591;28;20032;-72
2024/03/26 02:41:55;;;;;;;0.10;0.10;;;;;;;-139.19;100.00;56970.53;5093041;28;20110;-73
2024/03/26 02:45:19;;;;;;;0.10;0.10;;;;;;;-139.19;100.00;56970.53;5093381;28;20035;-66
2024/03/26 02:48:43;;;;;;;0.28;0.28;;;;;;;-139.19;100.00;56970.53;5091713;28;20454;-66
2024/03/26 02:52:07;;;;;;;0.50;0.50;;;;;;;-139.19;100.00;56970.53;5091280;28;20090;-66
2024/03/26 02:55:30;;;;;;;0.10;0.10;;;;;;;-139.19;100.00;56970.53;5092103;28;20027;-66
2024/03/26 02:58:54;;;;;;;0.10;0.10;;;;;;;-139.19;100.00;56970.53;5091932;28;20123;-66
2024/03/26 03:02:19;;;;;;;0.10;0.10;;;;;;;-139.19;100.00;56970.53;5089047;28;20419;-66
2024/03/26 03:05:44;;;;;;;0.10;0.10;;;;;;;-139.19;100.00;56970.53;5072753;28;20472;-66
2024/03/26 03:09:08;;;;;;;0.70;0.70;;;;;;;-139.19;100.00;56970.53;5052535;28;20033;-66
2024/03/26 03:12:31;;;;;;;0.08;0.08;;;;;;;-139.19;100.00;56970.53;5071261;28;20111;-66
2024/03/26 03:15:55;;;;;;;0.00;0.00;;;;;;;-139.19;100.00;56970.53;5072694;28;20491;-66
2024/03/26 03:19:20;;;;;;;0.52;0.52;;;;;;;-139.19;100.00;56970.53;5080235;28;20058;-66
2024/03/26 03:22:44;;;;;;;0.00;0.00;;;;;;;-139.19;100.00;56970.53;5095573;28;20028;-67
2024/03/26 03:26:07;;;;;;;0.00;0.00;;;;;;;-139.19;100.00;56970.53;5075589;28;20036;-66
2024/03/26 03:29:31;;;;;;;0.00;0.00;;;;;;;-139.19;100.00;56970.53;5075882;28;20025;-66
2024/03/26 03:32:55;;;;;;;0.30;0.30;;;;;;;-139.19;100.00;56970.53;5083342;28;20032;-66
2024/03/26 03:36:19;;;;;;;0.03;0.03;;;;;;;-139.19;100.00;56970.53;5086710;28;20040;-66
2024/03/26 03:39:43;;;;;;;0.10;0.10;;;;;;;-139.19;100.00;56970.53;5075716;28;20035;-66
2024/03/26 03:43:07;;;;;;;1.20;0.65;;;;;;;-139.19;100.00;56970.53;5075619;28;20035;-66
2024/03/26 03:46:31;;;;;;;0.10;0.10;;;;;;;-139.19;100.00;56970.53;5083607;28;20042;-66
2024/03/26 03:49:55;;;;;;;0.10;0.10;;;;;;;-139.19;100.00;56970.53;5092278;28;20043;-66
2024/03/26 03:53:19;;;;;;;0.20;0.20;;;;;;;-139.19;100.00;56970.53;5075400;28;20040;-66
2024/03/26 03:56:43;;;;;;;0.15;0.15;;;;;;;-139.19;100.00;56970.53;5082724;28;20028;-73
2024/03/26 04:00:07;;;;;;;0.10;0.10;;;;;;;-139.19;100.00;56970.53;5076224;28;20115;-73
2024/03/26 04:03:31;;;;;;;0.00;0.00;;;;;;;-139.19;100.00;56970.53;5087817;28;20043;-73
2024/03/26 04:06:55;;;;;;;0.10;0.10;;;;;;;-139.19;100.00;56970.53;5077520;28;20085;-73
2024/03/26 04:10:18;;;;;;;0.00;0.00;;;;;;;-139.19;100.00;56970.53;5094480;28;20120;-72
2024/03/26 04:13:42;;;;;;;0.77;0.77;;;;;;;-139.19;100.00;56970.53;5093484;28;20476;-72
2024/03/26 04:17:06;;;;;;;0.10;0.10;;;;;;;-139.19;100.00;56970.53;5089571;28;20028;-73
2024/03/26 04:20:30;;;;;;;0.15;0.15;;;;;;;-139.19;100.00;56970.53;5090890;28;20038;-73
2024/03/26 04:23:54;;;;;;;0.30;0.30;;;;;;;-139.19;100.00;56970.53;5094167;28;20039;-73
2024/03/26 04:27:18;;;;;;;0.38;0.38;;;;;;;-139.19;100.00;56970.53;5090221;28;20051;-73
2024/03/26 04:30:42;;;;;;;0.20;0.20;;;;;;;-139.19;100.00;56970.53;5075342;28;20028;-73
2024/03/26 04:34:06;;;;;;;0.10;0.10;;;;;;;-139.19;100.00;56970.53;5078048;28;20042;-72
2024/03/26 04:37:30;;;;;;;0.47;0.40;;;;;;;-139.19;100.00;56970.53;5093829;28;20071;-72
2024/03/26 04:40:54;;;;;;;0.10;0.10;;;;;;;-139.19;100.00;56970.53;5084156;28;20115;-73
2024/03/26 04:44:18;;;;;;;0.30;0.30;;;;;;;-139.19;100.00;56970.53;5074435;28;20028;-73
2024/03/26 04:47:41;;;;;;;0.10;0.10;;;;;;;-139.19;100.00;56970.53;5075677;28;20044;-72
2024/03/26 04:51:05;;;;;;;0.50;0.50;;;;;;;-139.19;100.00;56970.53;5074316;28;20479;-73
2024/03/26 04:54:29;;;;;;;0.15;0.15;;;;;;;-139.19;100.00;56970.53;5074472;28;20530;-73
2024/03/26 04:57:53;;;;;;;0.22;0.22;;;;;;;-139.19;100.00;56970.53;5074080;28;20054;-73
2024/03/26 05:01:17;;;;;;;0.00;0.00;;;;;;;-139.19;100.00;56970.53;5075786;28;20025;-73
2024/03/26 05:04:41;;;;;;;0.20;0.20;;;;;;;-139.19;100.00;56970.53;5081022;28;20036;-72
2024/03/26 05:08:05;;;;;;;0.08;0.08;;;;;;;-139.19;100.00;56970.53;5073868;28;20060;-72
2024/03/26 05:11:29;;;;;;;0.00;0.00;;;;;;;-139.19;100.00;56970.53;5074209;28;20108;-62
2024/03/26 05:14:53;;;;;;;0.00;0.00;;;;;;;-139.19;100.00;56970.53;5073845;28;20032;-62
2024/03/26 05:18:17;;;;;;;0.10;0.10;;;;;;;-139.19;100.00;56970.53;5053857;28;20128;-62
2024/03/26 05:21:40;;;;;;;0.10;0.10;;;;;;;-139.19;100.00;56970.53;5065264;28;20039;-62
2024/03/26 05:25:05;;;;;;;0.00;0.00;;;;;;;-139.19;100.00;56970.53;5073740;28;20383;-62
2024/03/26 05:28:29;;;;;;;0.10;0.10;;;;;;;-139.19;100.00;56970.53;5073661;28;20024;-63
2024/03/26 05:31:53;;;;;;;0.13;0.13;;;;;;;-139.19;100.00;56970.53;5053636;28;20469;-62
2024/03/26 05:35:17;;;;;;;0.05;0.05;;;;;;;-139.19;100.00;56970.53;5053640;28;20388;-62
2024/03/26 05:38:44;;;;;;;0.10;0.10;;;;;;;-139.19;100.00;56970.53;5053452;28;20029;-62
2024/03/26 05:42:09;;;;;;;0.10;0.10;;;;;;;-139.19;100.00;56970.53;5052768;28;20047;-63
2024/03/26 05:45:32;;;;;;;2.00;0.85;;;;;;;-139.19;100.00;56970.53;5062202;28;20031;-63
2024/03/26 05:48:56;;;;;;;0.73;0.63;;;;;;;-139.19;100.00;56970.53;5072398;28;20087;-62
2024/03/26 05:52:20;;;;;;;0.03;0.03;;;;;;;-139.19;100.00;56970.53;5073315;28;20036;-63
2024/03/26 05:55:44;;;;;;;0.10;0.10;;;;;;;-139.19;100.00;56970.53;5073268;28;20071;-62
2024/03/26 05:59:08;;;;;;;0.10;0.10;;;;;;;-139.19;100.00;56970.53;5073300;28;20391;-63
2024/03/26 06:02:32;;;;;;;0.13;0.13;;;;;;;-139.19;100.00;56970.53;5073224;28;20110;-63
2024/03/26 06:05:55;;;;;;;0.08;0.08;;;;;;;-139.19;100.00;56970.53;5073353;28;20479;-63
2024/03/26 06:09:19;;;;;;;0.28;0.28;;;;;;;-139.19;100.00;56970.53;5073202;28;20029;-63
2024/03/26 06:12:43;;;;;;;0.10;0.10;;;;;;;-139.19;100.00;56970.53;5073358;28;20111;-63
2024/03/26 06:16:08;;;;;;;0.38;0.38;;;;;;;-139.19;100.00;56970.53;5072492;28;20032;-63
2024/03/26 06:19:32;;;;;;;0.10;0.10;;;;;;;-139.19;100.00;56970.53;5073073;28;20032;-63
2024/03/26 06:22:56;;;;;;;0.30;0.30;;;;;;;-139.19;100.00;56970.53;5073085;28;20025;-74
2024/03/26 06:26:20;;;;;;;0.10;0.10;;;;;;;-139.19;100.00;56970.53;5073182;28;20047;-75
2024/03/26 06:29:44;;;;;;;0.10;0.10;;;;;;;-139.19;100.00;56970.53;5073181;28;20091;-75
2024/03/26 06:33:11;;;;;;;0.10;0.10;;;;;;;-139.19;100.00;56970.53;5073152;28;20021;-75
2024/03/26 06:36:35;;;;;;;0.10;0.10;;;;;;;-139.19;100.00;56970.53;5072994;28;20107;-75
2024/03/26 06:39:59;;;;;;;0.10;0.10;;;;;;;-139.19;100.00;56970.53;5073069;28;20024;-75
2024/03/26 06:43:23;;;;;;;0.10;0.10;;;;;;;-139.19;100.00;56970.53;5072969;28;20028;-75
2024/03/26 06:46:47;;;;;;;0.00;0.00;;;;;;;-139.19;100.00;56970.53;5072991;28;20028;-75
2024/03/26 06:50:11;;;;;;;0.05;0.05;;;;;;;-139.19;100.00;56970.53;5071682;28;20049;-75
2024/03/26 06:53:35;;;;;;;0.03;0.03;;;;;;;-139.19;100.00;56970.53;5056727;28;20033;-75
2024/03/26 06:56:59;;;;;;;0.10;0.10;;;;;;;-139.19;100.00;56970.53;5076716;28;20056;-67
2024/03/26 07:00:23;;;;;;;0.10;0.10;;;;;;;-139.19;100.00;56970.53;5076735;28;20529;-68
2024/03/26 07:03:47;;;;;;;0.40;0.40;;;;;;;-139.19;100.00;56970.53;5076693;28;20020;-67
2024/03/26 07:07:11;;;;;;;0.45;0.45;;;;;;;-139.19;100.00;56970.53;5076373;28;20039;-67
2024/03/26 07:10:42;;;;;;;0.32;0.32;;;;;;;-139.19;100.00;56970.53;5076270;28;20042;-67
2024/03/26 07:14:06;;;;;;;0.63;0.38;;;;;;;-139.19;100.00;56970.53;5075015;28;20518;-67
2024/03/26 07:17:30;;;;;;;0.08;0.08;;;;;;;-139.19;100.00;56970.53;5075159;28;20029;-67
2024/03/26 07:20:55;;;;;;;0.10;0.10;;;;;;;-139.19;100.00;56970.53;5075317;28;20043;-67
2024/03/26 07:24:18;;;;;;;0.20;0.20;;;;;;;-139.19;100.00;56970.53;5075656;28;20447;-66
2024/03/26 07:27:42;;;;;;;0.10;0.10;;;;;;;-139.19;100.00;56970.53;5075212;28;20082;-66
2024/03/26 07:31:09;;;;;;;0.77;0.57;;;;;;;-139.19;100.00;56970.53;5074692;28;20089;-67
2024/03/26 07:34:33;;;;;;;6.35;1.50;;;;;;;-139.19;100.00;56970.53;5075333;28;20028;-67
2024/03/26 07:37:57;;;;;;;1.58;0.82;;;;;;;-139.19;100.00;56970.53;5075243;28;20078;-67
2024/03/26 07:41:21;;;;;;;0.75;0.68;;;;;;;-139.19;100.00;56970.53;5068153;28;20044;-67
2024/03/26 07:44:45;;;;;;;1.45;0.63;;;;;;;-139.19;100.00;56970.53;5054639;28;20423;-67
2024/03/26 07:48:09;;;;;;;0.40;0.40;;;;;;;-139.19;100.00;56970.53;5055122;28;20029;-67
2024/03/26 07:51:32;;;;;;;0.10;0.10;;;;;;;-139.19;100.00;56970.53;5054787;28;20454;-66
2024/03/26 07:54:56;;;;;;;0.40;0.40;;;;;;;-139.19;100.00;56970.53;5054845;28;20024;-67
2024/03/26 07:58:20;;;;;;;0.88;0.52;;;;;;;-139.19;100.00;56970.53;5054963;28;20097;-66
2024/03/26 08:01:44;;;;;;;1.38;1.27;;;;;;;-139.19;100.00;56970.53;5054686;28;20392;-66
2024/03/26 08:05:08;;;;;;;0.10;0.10;;;;;;;-139.19;100.00;56970.53;5053816;28;20033;-67
2024/03/26 08:08:32;;;;;;;0.82;0.82;;;;;;;-139.19;100.00;56970.53;5054775;28;20028;-67
2024/03/26 08:12:03;;;;;;;0.70;0.60;;;;;;;-139.19;100.00;56970.53;5054577;28;20103;-67
2024/03/26 08:15:27;;;;;;;0.35;0.35;;;;;;;-139.19;100.00;56970.53;5053820;28;20481;-67
2024/03/26 08:18:51;;;;;;;0.00;0.00;;;;;;;-139.19;100.00;56970.53;5054474;28;20028;-67
2024/03/26 08:22:15;;;;;;;0.28;0.28;;;;;;;-139.19;100.00;56970.53;5054446;28;20388;-66
2024/03/26 08:25:39;;;;;;;0.00;0.00;;;;;;;-139.19;100.00;56970.53;5054205;28;20571;-67
2024/03/26 08:29:03;;;;;;;0.00;0.00;;;;;;;-139.19;100.00;56970.53;5053775;28;20100;-67
2024/03/26 08:32:26;;;;;;;0.00;0.00;;;;;;;-139.19;100.00;56970.53;5067903;28;20029;-67
2024/03/26 08:35:50;;;;;;;0.00;0.00;;;;;;;-139.19;100.00;56970.53;5059583;28;20464;-66
2024/03/26 08:39:14;;;;;;;0.20;0.20;;;;;;;-139.19;100.00;56970.53;5064690;28;20054;-66
2024/03/26 08:42:39;;;;;;;0.00;0.00;;;;;;;-139.19;100.00;56970.53;5060258;28;20082;-66
2024/03/26 08:46:04;;;;;;;0.38;0.38;;;;;;;-139.19;100.00;56970.53;5071859;28;20115;-66
2024/03/26 08:49:28;;;;;;;2.63;0.88;;;;;;;-139.19;100.00;56970.53;5061409;28;20053;-66
2024/03/26 08:52:52;;;;;;;0.05;0.05;;;;;;;-139.19;100.00;56970.53;5059810;28;20032;-66
2024/03/26 08:56:16;;;;;;;0.28;0.28;;;;;;;-139.19;100.00;56970.53;5065837;28;20529;-66
2024/03/26 08:59:41;;;;;;;0.22;0.22;;;;;;;-139.19;100.00;56970.53;5069501;28;20485;-66
2024/03/26 09:03:05;;;;;;;0.10;0.10;;;;;;;-139.19;100.00;56970.53;5065303;28;20115;-66
2024/03/26 09:06:29;;;;;;;0.13;0.13;;;;;;;-139.19;100.00;56970.53;5053273;28;20044;-66
2024/03/26 09:09:52;;;;;;;0.10;0.10;;;;;;;-139.19;100.00;56970.53;5068964;28;20426;-66
2024/03/26 09:13:16;;;;;;;0.00;0.00;;;;;;;-139.19;100.00;56970.53;5062462;28;20071;-66
2024/03/26 09:16:40;;;;;;;0.10;0.10;;;;;;;-139.19;100.00;56970.53;5053504;28;20496;-67
2024/03/26 09:20:07;;;;;;;0.13;0.10;;;;;;;-139.19;100.00;56970.53;5067222;28;20049;-66
2024/03/26 09:23:31;;;;;;;0.03;0.03;;;;;;;-139.19;100.00;56970.53;5064060;28;20140;-76
2024/03/26 09:26:55;;;;;;;0.10;0.10;;;;;;;-139.19;100.00;56970.53;5073307;28;20056;-76
2024/03/26 09:30:19;;;;;;;0.00;0.00;;;;;;;-139.19;100.00;56970.53;5055097;28;20381;-64
2024/03/26 09:33:42;;;;;;;0.08;0.08;;;;;;;-139.19;100.00;56970.53;5068384;28;20036;-65
2024/03/26 09:37:06;;;;;;;2.25;0.82;;;;;;;-139.19;100.00;56970.53;5066402;28;20053;-65
2024/03/26 09:40:34;;;;;;;0.05;0.05;;;;;;;-139.19;100.00;56970.53;5069918;28;20052;-65
2024/03/26 09:44:00;;;;;;;0.00;0.00;;;;;;;-139.19;100.00;56970.53;5045954;28;20484;-65
2024/03/26 09:47:25;;;;;;;0.75;0.70;;;;;;;-139.19;100.00;56970.53;5042286;28;20083;-65
2024/03/26 09:51:04;;;;;;;0.22;0.22;;;;;;;-139.19;100.00;56970.53;5029385;28;20088;-65
2024/03/26 09:54:29;;;;;;;1.08;0.40;;;;;;;-139.19;100.00;56970.53;5015367;28;20034;-65
2024/03/26 09:57:53;;;;;;;0.00;0.00;;;;;;;-139.19;100.00;56970.53;5030034;28;20037;-65
2024/03/26 10:01:19;;;;;;;0.10;0.10;;;;;;;-139.19;100.00;56970.53;5021834;28;20022;-65
2024/03/26 10:04:43;;;;;;;0.10;0.10;;;;;;;-139.19;100.00;56970.53;5028758;28;20076;-65
2024/03/26 10:08:07;;;;;;;0.10;0.10;;;;;;;-139.19;100.00;56970.53;5018633;28;20065;-65
2024/03/26 10:11:31;;;;;;;0.00;0.00;;;;;;;-139.19;100.00;56970.53;5022966;28;20504;-65
2024/03/26 10:14:59;;;;;;;0.10;0.10;;;;;;;-139.19;100.00;56970.53;5024519;28;20236;-65
2024/03/26 10:18:27;;;;;;;0.20;0.20;;;;;;;-139.19;100.00;56970.53;5015161;28;20470;-65
2024/03/26 10:21:52;;;;;;;0.40;0.40;;;;;;;-139.19;100.00;56970.53;5028759;28;20044;-65
2024/03/26 10:25:16;;;;;;;0.03;0.03;;;;;;;-139.19;100.00;56970.53;5017387;28;20029;-65
2024/03/26 10:28:40;;;;;;;0.28;0.28;;;;;;;-139.19;100.00;56970.53;5033244;28;20358;-65
2024/03/26 10:32:04;;;;;;;0.08;0.08;;;;;;;-139.19;100.00;56970.53;5022753;28;20025;-65
2024/03/26 10:35:28;;;;;;;0.00;0.00;;;;;;;-139.19;100.00;56970.53;5026083;28;20477;-65
2024/03/26 10:38:55;;;;;;;0.03;0.03;;;;;;;-139.19;100.00;56970.53;5027808;28;20487;-76
2024/03/26 10:42:25;;;;;;;0.10;0.10;;;;;;;-139.19;100.00;56970.53;5023871;28;20108;-78
2024/03/26 10:45:50;;;;;;;0.10;0.10;;;;;;;-139.19;100.00;56970.53;5030472;28;20013;-77
2024/03/26 10:49:20;;;;;;;0.00;0.00;;;;;;;-139.19;100.00;56970.53;5031017;28;20400;-77
2024/03/26 10:52:46;;;;;;;0.00;0.00;;;;;;;-139.19;100.00;56970.53;5047675;28;20033;-77
2024/03/26 10:56:10;;;;;;;0.08;0.08;;;;;;;-139.19;100.00;56970.53;5034038;28;20026;-75
2024/03/26 10:59:34;;;;;;;0.10;0.10;;;;;;;-139.19;100.00;56970.53;5036288;28;20111;-76
2024/03/26 11:03:00;;;;;;;0.35;0.10;;;;;;;-139.19;100.00;56970.53;5027658;28;20429;-65
2024/03/26 11:06:24;;;;;;;0.10;0.10;;;;;;;-139.19;100.00;56970.53;5029295;28;20022;-65
2024/03/26 11:10:04;;;;;;;0.10;0.10;;;;;;;-139.19;100.00;56970.53;5033914;28;20025;-65
2024/03/26 11:13:35;;;;;;;0.10;0.10;;;;;;;-139.19;100.00;56970.53;5037079;28;20025;-65
2024/03/26 11:16:59;;;;;;;1.27;0.52;;;;;;;-139.19;100.00;56970.53;5037653;28;20037;-65
2024/03/26 11:20:24;;;;;;;0.43;0.10;;;;;;;-139.19;100.00;56970.53;5025844;28;20032;-65
2024/03/26 11:24:04;;;;;;;0.00;0.00;;;;;;;-139.19;100.00;56970.53;5037161;28;20029;-65
2024/03/26 11:27:30;;;;;;;0.00;0.00;;;;;;;-139.19;100.00;56970.53;5034523;28;20033;-65
2024/03/26 11:31:01;;;;;;;0.00;0.00;;;;;;;-139.19;100.00;56970.53;5041010;28;20071;-65
2024/03/26 11:34:27;;;;;;;0.28;0.28;;;;;;;-139.19;100.00;56970.53;5044250;28;21471;-65
2024/03/26 11:37:53;;;;;;;0.08;0.08;;;;;;;-139.19;100.00;56970.53;5044125;28;20032;-65
2024/03/26 11:41:18;;;;;;;0.00;0.00;;;;;;;-139.19;100.00;56970.53;5037053;28;20061;-65
2024/03/26 11:44:42;;;;;;;0.20;0.20;;;;;;;-139.19;100.00;56970.53;5047823;28;20028;-66
2024/03/26 11:48:06;;;;;;;0.13;0.13;;;;;;;-139.19;100.00;56970.53;5035153;28;20080;-65
2024/03/26 11:51:30;;;;;;;0.08;0.08;;;;;;;-139.19;100.00;56970.53;5038746;28;20041;-65
2024/03/26 11:54:57;;;;;;;0.47;0.45;;;;;;;-139.19;100.00;56970.53;5042855;28;20033;-65
2024/03/26 11:58:27;;;;;;;0.00;0.00;;;;;;;-139.19;100.00;56970.53;5045674;28;20021;-65
2024/03/26 12:01:51;;;;;;;0.00;0.00;;;;;;;-139.19;100.00;56970.53;5040299;28;20029;-65
2024/03/26 12:05:15;;;;;;;0.10;0.10;;;;;;;-139.19;100.00;56970.53;5034582;28;20040;-65
2024/03/26 12:08:40;;;;;;;1.17;0.40;;;;;;;-139.19;100.00;56970.53;5043416;28;20028;-65
2024/03/26 12:12:05;;;;;;;0.00;0.00;;;;;;;-139.19;100.00;56970.53;5046222;28;20469;-66
2024/03/26 12:15:30;;;;;;;0.20;0.20;;;;;;;-139.19;100.00;56970.53;5041257;28;20025;-66
2024/03/26 12:18:54;;;;;;;0.00;0.00;;;;;;;-139.19;100.00;56970.53;5046934;28;20584;-66
2024/03/26 12:22:19;;;;;;;0.22;0.20;;;;;;;-139.19;100.00;56970.53;5048998;28;20032;-66
2024/03/26 12:25:46;;;;;;;0.30;0.30;;;;;;;-139.19;100.00;56970.53;5055182;28;20032;-66
2024/03/26 12:29:11;;;;;;;0.10;0.10;;;;;;;-139.19;100.00;56970.53;5054858;28;20029;-66
2024/03/26 12:32:35;;;;;;;0.03;0.03;;;;;;;-139.19;100.00;56970.53;5053626;28;20028;-66
2024/03/26 12:36:01;;;;;;;0.35;0.35;;;;;;;-139.19;100.00;56970.53;5054771;28;20488;-66
2024/03/26 12:39:25;;;;;;;0.10;0.10;;;;;;;-139.19;100.00;56970.53;5054923;28;20033;-66
2024/03/26 12:42:49;;;;;;;1.67;0.50;;;;;;;-139.19;100.00;56970.53;5054612;28;20043;-66
2024/03/26 12:46:13;;;;;;;0.30;0.17;;;;;;;-139.19;100.00;56970.53;5054815;28;20477;-66
2024/03/26 12:49:37;;;;;;;1.00;0.38;;;;;;;-139.19;100.00;56970.53;5054979;28;20032;-66
2024/03/26 12:53:02;;;;;;;0.00;0.00;;;;;;;-139.19;100.00;56970.53;5054701;28;20037;-66
2024/03/26 12:56:26;;;;;;;0.00;0.00;;;;;;;-139.19;100.00;56970.53;5054615;28;20029;-66
2024/03/26 12:59:50;;;;;;;0.00;0.00;;;;;;;-139.19;100.00;56970.53;5054552;28;20473;-66
2024/03/26 13:03:13;;;;;;;0.00;0.00;;;;;;;-139.19;100.00;56970.53;5054227;28;20064;-66
2024/03/26 13:06:37;;;;;;;0.10;0.10;;;;;;;-139.19;100.00;56970.53;5054152;28;20095;-66
2024/03/26 13:10:01;;;;;;;0.38;0.20;;;;;;;-139.19;100.00;56970.53;5054169;28;20057;-66
2024/03/26 13:13:29;;;;;;;0.20;0.20;;;;;;;-139.19;100.00;56970.53;5053959;28;20025;-66
2024/03/26 13:16:53;;;;;;;0.00;0.00;;;;;;;-139.19;100.00;56970.53;5054088;28;20029;-66
2024/03/26 13:20:17;;;;;;;8.95;1.08;;;;;;;-139.19;100.00;56970.53;5053879;28;20029;-66
2024/03/26 13:23:41;;;;;;;3.28;1.02;;;;;;;-139.19;100.00;56970.53;5053856;28;20119;-66
2024/03/26 13:27:05;;;;;;;0.08;0.08;;;;;;;-139.19;100.00;56970.53;5053825;28;20063;-66
2024/03/26 13:30:29;;;;;;;0.00;0.00;;;;;;;-139.19;100.00;56970.53;5053808;28;20025;-67
2024/03/26 13:33:53;;;;;;;0.10;0.10;;;;;;;-139.19;100.00;56970.53;5053668;28;20071;-66
2024/03/26 13:37:17;;;;;;;0.10;0.10;;;;;;;-139.19;100.00;56970.53;5053922;28;20481;-66
2024/03/26 13:40:41;;;;;;;0.03;0.03;;;;;;;-139.19;100.00;56970.53;5048457;28;20029;-68
2024/03/26 13:44:06;;;;;;;0.10;0.10;;;;;;;-139.19;100.00;56970.53;5050721;28;20476;-64
2024/03/26 13:47:30;;;;;;;0.00;0.00;;;;;;;-139.19;100.00;56970.53;5030156;28;20517;-64
2024/03/26 13:50:54;;;;;;;0.20;0.20;;;;;;;-139.19;100.00;56970.53;5043560;28;20054;-64
2024/03/26 13:54:18;;;;;;;0.38;0.38;;;;;;;-139.19;100.00;56970.53;5041611;28;20029;-64
2024/03/26 13:57:42;;;;;;;0.00;0.00;;;;;;;-139.19;100.00;56970.53;5042206;28;20472;-64
2024/03/26 14:01:06;;;;;;;0.38;0.38;;;;;;;-139.19;100.00;56970.53;5040199;28;20025;-64
2024/03/26 14:04:30;;;;;;;14.02;0.30;;;;;;;-139.19;100.00;56970.53;5034043;28;20064;-64
2024/03/26 14:07:54;;;;;;;3.10;0.30;;;;;;;-139.19;100.00;56970.53;5032947;28;20033;-64
2024/03/26 14:11:18;;;;;;;0.05;0.05;;;;;;;-139.19;100.00;56970.53;5033103;28;20105;-64
2024/03/26 14:14:42;;;;;;;0.05;0.05;;;;;;;-139.19;100.00;56970.53;5033135;28;20465;-64
2024/03/26 14:18:06;;;;;;;0.20;0.20;;;;;;;-139.19;100.00;56970.53;5023528;28;20026;-64
2024/03/26 14:21:29;;;;;;;0.05;0.05;;;;;;;-139.19;100.00;56970.53;5031401;28;20036;-64
2024/03/26 14:24:53;;;;;;;0.15;0.15;;;;;;;-139.19;100.00;56970.53;5038877;28;20160;-66
2024/03/26 14:28:18;;;;;;;0.08;0.08;;;;;;;-139.19;100.00;56970.53;5026032;28;20025;-65
2024/03/26 14:31:42;;;;;;;0.10;0.10;;;;;;;-139.19;100.00;56970.53;5021735;28;20033;-65
2024/03/26 14:35:06;;;;;;;0.22;0.22;;;;;;;-139.19;100.00;56970.53;5029044;28;20040;-65
2024/03/26 14:38:30;;;;;;;0.20;0.13;;;;;;;-139.19;100.00;56970.53;5024707;28;20036;-65
2024/03/26 14:41:54;;;;;;;0.00;0.00;;;;;;;-139.19;100.00;56970.53;5019606;28;20156;-65
2024/03/26 14:45:18;;;;;;;0.10;0.10;;;;;;;-139.19;100.00;56970.53;5022086;28;20505;-66
2024/03/26 14:48:41;;;;;;;0.00;0.00;;;;;;;-139.19;100.00;56970.53;5021125;28;20048;-65
2024/03/26 14:52:08;;;;;;;0.00;0.00;;;;;;;-139.19;100.00;56970.53;5052352;28;20507;-65
2024/03/26 14:55:32;;;;;;;0.93;0.15;;;;;;;-139.19;100.00;56970.53;5048099;28;20025;-65
2024/03/26 14:58:56;;;;;;;0.28;0.20;;;;;;;-139.19;100.00;56970.53;5045267;28;20041;-65
2024/03/26 15:02:20;;;;;;;0.00;0.00;;;;;;;-139.19;100.00;56970.53;5039725;28;20055;-64
2024/03/26 15:05:43;;;;;;;0.63;0.38;;;;;;;-139.19;100.00;56970.53;5041076;28;20029;-65
2024/03/26 15:09:07;;;;;;;0.60;0.60;;;;;;;-139.19;100.00;56970.53;5046519;28;20083;-65
2024/03/26 15:12:31;;;;;;;0.17;0.17;;;;;;;-139.19;100.00;56970.53;5052112;28;20423;-64
2024/03/26 15:15:55;;;;;;;0.10;0.10;;;;;;;-139.19;100.00;56970.53;5052316;28;20036;-64
2024/03/26 15:19:19;;;;;;;1.55;0.47;;;;;;;-139.19;100.00;56970.53;5047113;28;20086;-64
2024/03/26 15:22:43;;;;;;;0.10;0.10;;;;;;;-139.19;100.00;56970.53;5051951;28;20388;-64
2024/03/26 15:26:07;;;;;;;0.25;0.10;;;;;;;-139.19;100.00;56970.53;5055314;28;20035;-65
2024/03/26 15:33:13;;;;;;;0.25;0.25;;;;;;;-139.19;100.00;56970.53;5043748;28;20040;-65